createdAt,value
2018-07-31T00:01:17.854Z,77.02
2018-07-31T00:03:47.343Z,76.71
2018-07-31T00:06:18.729Z,77.69
2018-07-31T00:08:48.755Z,77.78
2018-07-31T00:11:18.173Z,77.59
2018-07-31T00:13:47.612Z,77.12
2018-07-31T00:16:17.115Z,78.10
2018-07-31T00:18:46.491Z,77.74
2018-07-31T00:21:15.873Z,77.81
2018-07-31T00:23:45.298Z,77.81
2018-07-31T00:26:14.715Z,78.26
2018-07-31T00:28:44.129Z,78.26
2018-07-31T00:31:14.474Z,78.40
2018-07-31T00:33:43.866Z,78.15
2018-07-31T00:36:13.269Z,78.49
2018-07-31T00:38:42.690Z,78.47
2018-07-31T00:41:12.199Z,79.06
2018-07-31T00:43:41.613Z,79.15
2018-07-31T00:46:11.105Z,78.83
2018-07-31T00:48:40.587Z,79.28
2018-07-31T00:51:10.041Z,78.95
2018-07-31T00:53:39.522Z,79.54
2018-07-31T00:56:09.005Z,79.06
2018-07-31T00:58:38.445Z,79.09
2018-07-31T01:01:07.933Z,79.96
2018-07-31T01:03:37.361Z,80.01
2018-07-31T01:06:06.769Z,79.91
2018-07-31T01:08:36.136Z,79.96
2018-07-31T01:11:05.656Z,80.10
2018-07-31T01:13:35.125Z,80.01
2018-07-31T01:16:04.537Z,80.38
2018-07-31T01:18:33.975Z,80.65
2018-07-31T01:21:04.248Z,80.12
2018-07-31T01:23:33.646Z,79.92
2018-07-31T01:26:03.139Z,80.52
2018-07-31T01:28:32.549Z,80.57
2018-07-31T01:31:01.956Z,80.98
2018-07-31T01:33:31.379Z,80.81
2018-07-31T01:36:00.966Z,80.46
2018-07-31T01:38:30.397Z,80.40
2018-07-31T01:40:59.818Z,80.91
2018-07-31T01:43:29.271Z,80.71
2018-07-31T01:45:58.761Z,81.36
2018-07-31T01:48:28.165Z,81.15
2018-07-31T01:50:57.510Z,80.94
2018-07-31T01:53:27.971Z,81.25
2018-07-31T01:55:57.331Z,81.14
2018-07-31T01:58:26.813Z,81.76
2018-07-31T02:00:56.268Z,82.21
2018-07-31T02:03:25.664Z,82.35
2018-07-31T02:05:55.105Z,82.43
2018-07-31T02:08:24.572Z,81.71
2018-07-31T02:10:53.911Z,81.74
2018-07-31T02:13:23.364Z,82.41
2018-07-31T02:15:52.806Z,82.19
2018-07-31T02:18:22.279Z,82.92
2018-07-31T02:20:51.734Z,82.22
2018-07-31T02:23:21.184Z,82.71
2018-07-31T02:25:50.575Z,82.61
2018-07-31T02:28:20.168Z,83.14
2018-07-31T02:30:49.478Z,82.73
2018-07-31T02:33:18.929Z,83.56
2018-07-31T02:35:48.419Z,83.54
2018-07-31T02:38:17.841Z,83.02
2018-07-31T02:40:47.294Z,83.13
2018-07-31T02:43:16.750Z,82.73
2018-07-31T02:45:46.222Z,82.96
2018-07-31T02:48:15.607Z,83.40
2018-07-31T02:50:45.035Z,82.81
2018-07-31T02:53:14.445Z,83.37
2018-07-31T02:55:43.953Z,83.24
2018-07-31T02:58:13.499Z,83.43
2018-07-31T03:00:42.898Z,83.68
2018-07-31T03:03:12.320Z,83.75
2018-07-31T03:05:41.794Z,83.40
2018-07-31T03:08:11.230Z,83.67
2018-07-31T03:10:40.623Z,83.50
2018-07-31T03:13:10.083Z,82.90
2018-07-31T03:15:39.507Z,83.17
2018-07-31T03:18:08.911Z,82.65
2018-07-31T03:20:38.329Z,82.45
2018-07-31T03:23:07.808Z,82.63
2018-07-31T03:25:37.217Z,82.65
2018-07-31T03:28:06.627Z,83.15
2018-07-31T03:30:35.936Z,83.18
2018-07-31T03:33:05.466Z,82.77
2018-07-31T03:35:34.867Z,82.83
2018-07-31T03:38:04.426Z,82.69
2018-07-31T03:40:33.931Z,82.41
2018-07-31T03:43:03.403Z,82.48
2018-07-31T03:45:32.864Z,82.25
2018-07-31T03:48:02.276Z,82.22
2018-07-31T03:50:31.699Z,82.24
2018-07-31T03:53:01.109Z,82.42
2018-07-31T03:55:30.642Z,82.31
2018-07-31T03:58:00.094Z,82.77
2018-07-31T04:00:29.538Z,82.39
2018-07-31T04:02:58.930Z,83.08
2018-07-31T04:05:28.500Z,83.11
2018-07-31T04:07:57.871Z,83.02
2018-07-31T04:10:27.314Z,83.63
2018-07-31T04:12:56.848Z,83.87
2018-07-31T04:15:26.354Z,83.50
2018-07-31T04:17:57.664Z,84.28
2018-07-31T04:20:27.891Z,84.14
2018-07-31T04:22:57.428Z,83.89
2018-07-31T04:25:26.942Z,83.17
2018-07-31T04:27:56.418Z,83.49
2018-07-31T04:30:25.885Z,83.20
2018-07-31T04:32:55.321Z,83.12
2018-07-31T04:35:24.764Z,83.64
2018-07-31T04:37:54.206Z,84.27
2018-07-31T04:40:23.574Z,83.71
2018-07-31T04:42:53.029Z,84.06
2018-07-31T04:45:22.495Z,84.56
2018-07-31T04:47:51.951Z,84.57
2018-07-31T04:50:21.440Z,85.40
2018-07-31T04:52:50.810Z,85.47
2018-07-31T04:55:20.273Z,85.58
2018-07-31T04:57:49.724Z,86.01
2018-07-31T05:00:19.193Z,85.53
2018-07-31T05:02:48.686Z,86.42
2018-07-31T05:05:18.182Z,86.48
2018-07-31T05:07:47.361Z,86.39
2018-07-31T05:10:16.797Z,86.55
2018-07-31T05:12:46.015Z,86.71
2018-07-31T05:15:15.479Z,86.50
2018-07-31T05:17:45.025Z,86.80
2018-07-31T05:20:14.507Z,86.31
2018-07-31T05:22:44.015Z,85.77
2018-07-31T05:25:13.500Z,85.69
2018-07-31T05:27:42.919Z,85.18
2018-07-31T05:30:12.349Z,84.93
2018-07-31T05:32:41.901Z,84.97
2018-07-31T05:35:11.289Z,84.53
2018-07-31T05:37:40.755Z,83.74
2018-07-31T05:40:10.638Z,83.81
2018-07-31T05:42:40.107Z,83.58
2018-07-31T05:45:09.577Z,83.46
2018-07-31T05:47:39.137Z,83.98
2018-07-31T05:50:09.382Z,84.14
2018-07-31T05:52:39.276Z,84.29
2018-07-31T05:55:08.796Z,84.21
2018-07-31T05:57:38.238Z,84.10
2018-07-31T06:00:09.039Z,83.65
2018-07-31T06:02:38.602Z,83.61
2018-07-31T06:05:08.020Z,84.51
2018-07-31T06:07:37.421Z,83.96
2018-07-31T06:10:08.234Z,84.19
2018-07-31T06:12:37.653Z,83.87
2018-07-31T06:15:08.397Z,83.32
2018-07-31T06:17:37.798Z,83.28
2018-07-31T06:20:14.875Z,83.29
2018-07-31T06:22:45.523Z,83.74
2018-07-31T06:25:15.315Z,82.88
2018-07-31T06:27:45.394Z,83.12
2018-07-31T06:30:15.517Z,83.14
2018-07-31T06:32:44.910Z,82.92
2018-07-31T06:35:14.289Z,82.95
2018-07-31T06:37:43.697Z,82.79
2018-07-31T06:40:13.145Z,82.13
2018-07-31T06:42:42.270Z,82.02
2018-07-31T06:45:11.705Z,81.63
2018-07-31T06:47:41.114Z,81.18
2018-07-31T06:50:10.606Z,80.68
2018-07-31T06:52:40.045Z,80.81
2018-07-31T06:55:09.489Z,81.10
2018-07-31T06:57:38.879Z,80.59
2018-07-31T07:00:08.107Z,81.15
2018-07-31T07:02:37.540Z,80.91
2018-07-31T07:05:07.057Z,80.63
2018-07-31T07:07:36.504Z,80.81
2018-07-31T07:10:06.401Z,81.56
2018-07-31T07:12:35.786Z,82.08
2018-07-31T07:15:05.313Z,81.63
2018-07-31T07:17:34.779Z,81.51
2018-07-31T07:20:04.616Z,81.36
2018-07-31T07:22:34.054Z,81.62
2018-07-31T07:25:03.252Z,81.21
2018-07-31T07:27:32.705Z,81.25
2018-07-31T07:30:13.936Z,80.58
2018-07-31T07:32:43.095Z,80.36
2018-07-31T07:35:12.542Z,80.26
2018-07-31T07:37:41.955Z,80.05
2018-07-31T07:40:11.528Z,79.83
2018-07-31T07:42:40.907Z,79.77
2018-07-31T07:45:10.309Z,79.26
2018-07-31T07:47:39.713Z,79.95
2018-07-31T07:50:09.175Z,79.93
2018-07-31T07:52:38.610Z,79.68
2018-07-31T07:55:08.041Z,79.21
2018-07-31T07:57:37.467Z,79.38
2018-07-31T08:00:09.514Z,79.15
2018-07-31T08:02:39.005Z,79.02
2018-07-31T08:05:08.832Z,78.76
2018-07-31T08:07:38.295Z,78.72
2018-07-31T08:10:07.819Z,78.32
2018-07-31T08:12:37.232Z,77.92
2018-07-31T08:15:06.873Z,76.98
2018-07-31T08:17:36.306Z,72.89
2018-07-31T08:20:07.065Z,71.66
2018-07-31T08:22:36.562Z,68.67
2018-07-31T08:25:06.343Z,67.86
2018-07-31T08:27:35.865Z,65.96
2018-07-31T08:30:05.606Z,65.70
2018-07-31T08:32:34.994Z,64.45
2018-07-31T08:35:04.440Z,64.29
2018-07-31T08:37:33.929Z,64.17
2018-07-31T08:40:03.431Z,62.75
2018-07-31T08:42:32.875Z,63.09
2018-07-31T08:45:02.302Z,62.49
2018-07-31T08:47:31.750Z,61.78
2018-07-31T08:50:01.167Z,61.88
2018-07-31T08:52:30.635Z,62.81
2018-07-31T08:55:00.179Z,60.60
2018-07-31T08:57:29.630Z,59.21
2018-07-31T08:59:59.078Z,59.76
2018-07-31T09:02:28.515Z,60.47
2018-07-31T09:04:58.272Z,58.28
2018-07-31T09:07:27.810Z,58.35
2018-07-31T09:09:57.433Z,58.89
2018-07-31T09:12:26.909Z,57.26
2018-07-31T09:14:56.373Z,56.65
2018-07-31T09:17:25.800Z,58.08
2018-07-31T09:19:55.235Z,57.20
2018-07-31T09:22:24.734Z,58.21
2018-07-31T09:24:54.377Z,59.03
2018-07-31T09:27:23.735Z,55.42
2018-07-31T09:29:53.196Z,57.54
2018-07-31T09:32:27.864Z,57.00
2018-07-31T09:34:57.342Z,55.95
2018-07-31T09:37:26.780Z,56.56
2018-07-31T09:39:56.672Z,56.85
2018-07-31T09:42:25.825Z,56.15
2018-07-31T09:44:55.268Z,55.90
2018-07-31T09:47:24.415Z,54.06
2018-07-31T09:49:53.915Z,54.42
2018-07-31T09:52:23.528Z,54.21
2018-07-31T09:54:53.032Z,53.41
2018-07-31T09:57:22.426Z,54.96
2018-07-31T09:59:51.844Z,54.45
2018-07-31T10:02:21.332Z,55.91
2018-07-31T10:04:50.761Z,52.92
2018-07-31T10:07:20.207Z,52.90
2018-07-31T10:09:49.676Z,54.58
2018-07-31T10:12:19.072Z,55.76
2018-07-31T10:14:48.552Z,53.79
2018-07-31T10:17:17.996Z,53.76
2018-07-31T10:19:47.472Z,54.75
2018-07-31T10:22:16.890Z,52.85
2018-07-31T10:24:46.285Z,52.62
2018-07-31T10:27:15.760Z,53.67
2018-07-31T10:29:45.159Z,54.85
2018-07-31T10:32:14.698Z,55.72
2018-07-31T10:34:44.186Z,54.69
2018-07-31T10:37:14.058Z,52.22
2018-07-31T10:39:43.576Z,51.50
2018-07-31T10:42:13.005Z,51.81
2018-07-31T10:44:42.529Z,52.00
2018-07-31T10:47:12.011Z,52.82
2018-07-31T10:49:41.510Z,52.29
2018-07-31T10:52:10.934Z,51.28
2018-07-31T10:54:40.385Z,52.71
2018-07-31T10:57:09.859Z,54.10
2018-07-31T10:59:39.351Z,53.94
2018-07-31T11:02:08.806Z,53.24
2018-07-31T11:04:38.295Z,52.93
2018-07-31T11:07:07.757Z,52.65
2018-07-31T11:09:37.219Z,51.73
2018-07-31T11:12:06.691Z,52.46
2018-07-31T11:14:36.150Z,51.09
2018-07-31T11:17:05.579Z,51.56
2018-07-31T11:19:35.060Z,52.01
2018-07-31T11:22:04.529Z,50.28
2018-07-31T11:24:33.991Z,50.48
2018-07-31T11:27:03.531Z,51.77
2018-07-31T11:29:33.036Z,49.60
2018-07-31T11:32:02.196Z,49.79
2018-07-31T11:34:31.733Z,49.17
2018-07-31T11:37:01.151Z,48.04
2018-07-31T11:39:30.607Z,48.50
2018-07-31T11:42:00.126Z,50.06
2018-07-31T11:44:29.579Z,48.54
2018-07-31T11:46:59.075Z,48.17
2018-07-31T11:49:28.289Z,48.40
2018-07-31T11:51:57.788Z,48.98
2018-07-31T11:54:27.265Z,46.96
2018-07-31T11:56:56.473Z,46.81
2018-07-31T11:59:25.877Z,47.38
2018-07-31T12:01:55.257Z,46.97
2018-07-31T12:04:24.672Z,47.78
2018-07-31T12:06:54.101Z,47.58
2018-07-31T12:09:23.548Z,47.58
2018-07-31T12:11:53.038Z,46.58
2018-07-31T12:14:22.610Z,48.70
2018-07-31T12:16:52.046Z,46.51
2018-07-31T12:19:22.361Z,47.66
2018-07-31T12:21:51.834Z,46.84
2018-07-31T12:24:21.272Z,48.01
2018-07-31T12:26:50.781Z,46.61
2018-07-31T12:29:20.217Z,48.30
2018-07-31T12:31:49.658Z,48.49
2018-07-31T12:34:18.837Z,48.12
2018-07-31T12:36:48.281Z,48.46
2018-07-31T12:39:17.727Z,47.53
2018-07-31T12:41:47.152Z,47.87
2018-07-31T12:44:16.605Z,48.91
2018-07-31T12:46:46.038Z,47.60
2018-07-31T12:49:15.495Z,47.10
2018-07-31T12:51:44.954Z,46.92
2018-07-31T12:54:14.420Z,46.90
2018-07-31T12:56:43.885Z,46.59
2018-07-31T12:59:13.288Z,45.71
2018-07-31T13:01:42.845Z,47.15
2018-07-31T13:04:12.286Z,46.63
2018-07-31T13:06:42.708Z,47.00
2018-07-31T13:09:12.188Z,47.43
2018-07-31T13:11:41.608Z,48.67
2018-07-31T13:14:11.092Z,48.36
2018-07-31T13:16:40.642Z,47.62
2018-07-31T13:19:10.078Z,46.61
2018-07-31T13:21:39.551Z,45.25
2018-07-31T13:24:09.019Z,46.55
2018-07-31T13:26:38.459Z,46.67
2018-07-31T13:29:07.987Z,47.08
2018-07-31T13:31:37.417Z,45.08
2018-07-31T13:34:07.707Z,45.89
2018-07-31T13:36:37.161Z,46.43
2018-07-31T13:39:10.358Z,46.56
2018-07-31T13:41:39.838Z,46.72
2018-07-31T13:44:09.151Z,47.17
2018-07-31T13:46:38.456Z,47.10
2018-07-31T13:49:07.603Z,46.71
2018-07-31T13:51:37.014Z,46.39
2018-07-31T13:54:06.465Z,46.95
2018-07-31T13:56:35.912Z,46.66
2018-07-31T13:59:05.401Z,45.71
2018-07-31T14:01:34.807Z,44.91
2018-07-31T14:04:04.317Z,45.80
2018-07-31T14:06:33.750Z,45.70
2018-07-31T14:09:03.230Z,44.71
2018-07-31T14:11:32.729Z,44.48
2018-07-31T14:14:02.143Z,43.90
2018-07-31T14:16:31.603Z,43.89
2018-07-31T14:19:00.782Z,44.69
2018-07-31T14:21:30.240Z,46.05
2018-07-31T14:23:59.828Z,45.88
2018-07-31T14:26:29.359Z,44.44
2018-07-31T14:28:58.948Z,43.12
2018-07-31T14:31:28.543Z,42.87
2018-07-31T14:33:57.988Z,42.90
2018-07-31T14:36:27.491Z,42.98
2018-07-31T14:38:56.921Z,43.47
2018-07-31T14:41:26.412Z,43.06
2018-07-31T14:43:55.909Z,42.92
2018-07-31T14:46:25.410Z,42.31
2018-07-31T14:48:54.901Z,40.84
2018-07-31T14:51:24.331Z,42.01
2018-07-31T14:53:53.807Z,41.37
2018-07-31T14:56:23.871Z,39.94
2018-07-31T14:58:53.401Z,40.16
2018-07-31T15:01:22.937Z,39.97
2018-07-31T15:03:52.391Z,41.04
2018-07-31T15:06:21.826Z,39.26
2018-07-31T15:08:51.566Z,39.16
2018-07-31T15:11:20.775Z,38.46
2018-07-31T15:13:50.810Z,37.32
2018-07-31T15:16:20.265Z,37.02
2018-07-31T15:18:49.722Z,36.01
2018-07-31T15:21:19.175Z,36.30
2018-07-31T15:23:48.573Z,36.13
2018-07-31T15:26:17.989Z,36.33
2018-07-31T15:28:47.457Z,36.72
2018-07-31T15:31:16.999Z,36.30
2018-07-31T15:33:46.462Z,36.06
2018-07-31T15:36:15.964Z,35.64
2018-07-31T15:38:45.418Z,36.27
2018-07-31T15:41:14.990Z,36.89
2018-07-31T15:43:44.532Z,37.38
2018-07-31T15:46:14.043Z,37.28
2018-07-31T15:48:43.523Z,37.08
2018-07-31T15:51:13.062Z,36.51
2018-07-31T15:53:42.557Z,36.21
2018-07-31T15:56:12.599Z,37.19
2018-07-31T15:58:42.081Z,37.71
2018-07-31T16:01:11.827Z,38.60
2018-07-31T16:03:41.312Z,37.96
2018-07-31T16:06:10.783Z,37.86
2018-07-31T16:08:40.247Z,38.14
2018-07-31T16:11:09.720Z,38.93
2018-07-31T16:13:39.145Z,38.56
2018-07-31T16:16:08.705Z,38.98
2018-07-31T16:18:38.101Z,39.83
2018-07-31T16:21:07.588Z,39.72
2018-07-31T16:23:37.066Z,39.17
2018-07-31T16:26:06.244Z,39.25
2018-07-31T16:28:35.732Z,38.14
2018-07-31T16:31:05.181Z,38.20
2018-07-31T16:33:34.724Z,38.01
2018-07-31T16:36:04.154Z,38.11
2018-07-31T16:38:33.632Z,38.92
2018-07-31T16:41:03.124Z,38.73
2018-07-31T16:43:32.656Z,38.75
2018-07-31T16:46:02.186Z,39.79
2018-07-31T16:48:31.716Z,38.51
2018-07-31T16:51:01.182Z,39.38
2018-07-31T16:53:30.684Z,39.45
2018-07-31T16:56:00.205Z,38.90
2018-07-31T16:58:29.715Z,38.26
2018-07-31T17:00:59.153Z,39.00
2018-07-31T17:03:28.652Z,40.02
2018-07-31T17:05:57.829Z,39.17
2018-07-31T17:08:27.286Z,38.80
2018-07-31T17:10:56.713Z,38.87
2018-07-31T17:13:26.228Z,38.88
2018-07-31T17:15:55.708Z,37.85
2018-07-31T17:18:25.311Z,37.45
2018-07-31T17:20:55.092Z,38.10
2018-07-31T17:23:24.492Z,37.89
2018-07-31T17:25:53.939Z,38.49
2018-07-31T17:28:23.497Z,38.83
2018-07-31T17:30:52.931Z,38.58
2018-07-31T17:33:22.369Z,38.82
2018-07-31T17:35:51.866Z,40.28
2018-07-31T17:38:21.300Z,39.91
2018-07-31T17:40:50.854Z,41.53
2018-07-31T17:43:20.305Z,41.28
2018-07-31T17:45:49.844Z,41.56
2018-07-31T17:48:19.372Z,41.11
2018-07-31T17:50:48.866Z,40.83
2018-07-31T17:53:18.350Z,42.28
2018-07-31T17:55:47.819Z,42.88
2018-07-31T17:58:17.267Z,43.48
2018-07-31T18:00:46.753Z,42.64
2018-07-31T18:03:16.236Z,42.44
2018-07-31T18:05:45.696Z,43.90
2018-07-31T18:08:15.112Z,44.79
2018-07-31T18:10:44.512Z,45.20
2018-07-31T18:13:14.002Z,45.51
2018-07-31T18:15:43.463Z,46.45
2018-07-31T18:18:12.930Z,45.97
2018-07-31T18:20:42.334Z,46.56
2018-07-31T18:23:11.801Z,47.49
2018-07-31T18:25:41.306Z,47.62
2018-07-31T18:28:10.732Z,48.46
2018-07-31T18:30:40.361Z,48.39
2018-07-31T18:33:09.994Z,48.29
2018-07-31T18:35:39.417Z,49.20
2018-07-31T18:38:08.845Z,49.24
2018-07-31T18:40:38.307Z,49.11
2018-07-31T18:43:07.886Z,48.59
2018-07-31T18:45:37.364Z,49.27
2018-07-31T18:48:06.812Z,49.44
2018-07-31T18:50:36.342Z,49.25
2018-07-31T18:53:05.772Z,49.70
2018-07-31T18:55:35.226Z,50.12
2018-07-31T18:58:04.678Z,50.61
2018-07-31T19:00:34.125Z,50.05
2018-07-31T19:03:03.784Z,49.47
2018-07-31T19:05:33.251Z,49.66
2018-07-31T19:08:02.710Z,49.70
2018-07-31T19:10:32.148Z,50.14
2018-07-31T19:13:01.600Z,50.45
2018-07-31T19:15:31.053Z,50.85
2018-07-31T19:18:00.569Z,50.47
2018-07-31T19:20:30.479Z,50.81
2018-07-31T19:22:59.929Z,51.44
2018-07-31T19:25:30.097Z,51.18
2018-07-31T19:27:59.641Z,51.52
2018-07-31T19:30:29.072Z,51.75
2018-07-31T19:32:58.553Z,52.09
2018-07-31T19:35:28.066Z,52.42
2018-07-31T19:37:57.505Z,52.43
2018-07-31T19:40:27.384Z,52.71
2018-07-31T19:42:56.905Z,53.16
2018-07-31T19:45:26.382Z,54.10
2018-07-31T19:47:55.827Z,53.78
2018-07-31T19:50:25.393Z,54.15
2018-07-31T19:52:54.904Z,54.25
2018-07-31T19:55:24.390Z,54.03
2018-07-31T19:57:53.873Z,54.86
2018-07-31T20:00:23.387Z,54.32
2018-07-31T20:02:52.827Z,55.32
2018-07-31T20:05:22.370Z,55.23
2018-07-31T20:07:51.860Z,55.15
2018-07-31T20:10:21.380Z,55.45
2018-07-31T20:12:50.833Z,55.64
2018-07-31T20:15:20.310Z,56.03
2018-07-31T20:17:49.678Z,56.29
2018-07-31T20:20:19.146Z,56.97
2018-07-31T20:22:48.580Z,56.37
2018-07-31T20:25:18.038Z,57.41
2018-07-31T20:27:47.553Z,57.82
2018-07-31T20:30:17.094Z,58.08
2018-07-31T20:32:46.498Z,57.68
2018-07-31T20:35:15.913Z,58.64
2018-07-31T20:37:45.433Z,58.95
2018-07-31T20:40:14.944Z,58.76
2018-07-31T20:42:44.450Z,59.08
2018-07-31T20:45:13.936Z,59.70
2018-07-31T20:47:43.389Z,59.52
2018-07-31T20:50:12.886Z,60.62
2018-07-31T20:52:42.300Z,61.27
2018-07-31T20:55:11.811Z,60.43
2018-07-31T20:57:41.315Z,60.56
2018-07-31T21:00:10.829Z,61.25
2018-07-31T21:02:40.272Z,61.04
2018-07-31T21:05:09.717Z,61.19
2018-07-31T21:07:39.157Z,61.19
2018-07-31T21:10:08.653Z,61.78
2018-07-31T21:12:38.178Z,61.96
2018-07-31T21:15:07.789Z,62.02
2018-07-31T21:17:37.166Z,62.37
2018-07-31T21:20:06.700Z,62.64
2018-07-31T21:22:36.136Z,63.05
2018-07-31T21:25:05.726Z,62.64
2018-07-31T21:27:35.223Z,63.18
2018-07-31T21:30:05.078Z,62.48
2018-07-31T21:32:34.503Z,62.61
2018-07-31T21:35:04.152Z,62.92
2018-07-31T21:37:33.819Z,62.70
2018-07-31T21:40:03.384Z,62.87
2018-07-31T21:42:32.810Z,63.18
2018-07-31T21:45:02.278Z,63.44
2018-07-31T21:47:31.793Z,63.59
2018-07-31T21:50:01.175Z,63.57
2018-07-31T21:52:30.609Z,64.18
2018-07-31T21:55:00.042Z,63.80
2018-07-31T21:57:29.540Z,64.55
2018-07-31T21:59:58.916Z,64.69
2018-07-31T22:02:28.406Z,64.44
2018-07-31T22:04:57.867Z,65.08
2018-07-31T22:07:27.300Z,64.22
2018-07-31T22:09:56.743Z,64.69
2018-07-31T22:12:26.214Z,65.20
2018-07-31T22:14:55.659Z,64.90
2018-07-31T22:17:25.060Z,64.88
2018-07-31T22:19:54.508Z,65.16
2018-07-31T22:22:23.959Z,65.52
2018-07-31T22:24:53.417Z,66.15
2018-07-31T22:27:22.884Z,66.05
2018-07-31T22:29:52.310Z,66.70
2018-07-31T22:32:21.796Z,66.34
2018-07-31T22:34:51.243Z,66.66
2018-07-31T22:37:20.678Z,66.60
2018-07-31T22:39:50.116Z,66.83
2018-07-31T22:42:19.548Z,66.56
2018-07-31T22:44:48.960Z,66.66
2018-07-31T22:47:18.408Z,67.07
2018-07-31T22:49:47.830Z,67.73
2018-07-31T22:52:17.307Z,67.46
2018-07-31T22:54:46.694Z,67.47
2018-07-31T22:57:16.119Z,68.31
2018-07-31T22:59:45.821Z,68.36
2018-07-31T23:02:15.226Z,67.98
2018-07-31T23:04:44.691Z,68.12
2018-07-31T23:07:14.136Z,68.46
2018-07-31T23:09:48.256Z,68.66
2018-07-31T23:12:17.758Z,68.08
2018-07-31T23:14:47.265Z,68.43
2018-07-31T23:17:16.707Z,68.05
2018-07-31T23:19:46.259Z,68.89
2018-07-31T23:22:26.623Z,68.49
2018-07-31T23:24:56.138Z,69.09
2018-07-31T23:27:25.582Z,69.36
2018-07-31T23:29:55.100Z,69.18
2018-07-31T23:32:24.476Z,69.35
2018-07-31T23:34:54.058Z,69.37
2018-07-31T23:37:23.577Z,69.89
2018-07-31T23:39:53.115Z,69.74
2018-07-31T23:42:22.591Z,70.20
2018-07-31T23:44:52.159Z,70.11
2018-07-31T23:47:21.590Z,70.08
2018-07-31T23:49:51.985Z,70.12
2018-07-31T23:52:21.483Z,70.11
2018-07-31T23:54:50.909Z,70.53
2018-07-31T23:57:20.398Z,70.39
2018-07-31T23:59:50.179Z,70.24
